createdAt,value
2022-11-06T00:01:06.522Z,1.50
2022-11-06T00:03:54.226Z,1.60
2022-11-06T00:06:47.973Z,1.60
2022-11-06T00:09:35.519Z,1.60
2022-11-06T00:12:22.719Z,1.70
2022-11-06T00:15:10.705Z,1.70
2022-11-06T00:17:58.288Z,1.70
2022-11-06T00:20:45.855Z,1.70
2022-11-06T00:23:34.879Z,1.70
2022-11-06T00:26:23.217Z,1.70
2022-11-06T00:29:13.806Z,1.80
2022-11-06T00:32:01.267Z,1.80
2022-11-06T00:34:49.049Z,1.80
2022-11-06T00:37:36.905Z,1.80
2022-11-06T00:40:25.580Z,1.80
2022-11-06T00:43:13.150Z,1.80
2022-11-06T00:46:02.196Z,1.90
2022-11-06T00:48:50.140Z,1.90
2022-11-06T00:51:39.479Z,1.90
2022-11-06T00:54:26.788Z,1.90
2022-11-06T00:57:15.989Z,2.00
2022-11-06T01:00:03.544Z,2.00
2022-11-06T01:02:51.420Z,2.00
2022-11-06T01:05:39.061Z,2.00
2022-11-06T01:08:26.361Z,2.00
2022-11-06T01:11:15.775Z,2.00
2022-11-06T01:14:05.971Z,2.00
2022-11-06T01:16:53.463Z,2.00
2022-11-06T01:19:41.248Z,2.00
2022-11-06T01:22:28.955Z,2.00
2022-11-06T01:25:16.723Z,2.00
2022-11-06T01:28:04.346Z,2.00
2022-11-06T01:30:53.215Z,2.00
2022-11-06T01:33:40.910Z,2.10
2022-11-06T01:36:29.201Z,2.10
2022-11-06T01:39:17.376Z,2.10
2022-11-06T01:42:05.189Z,2.10
2022-11-06T01:45:17.500Z,2.10
2022-11-06T01:48:06.627Z,2.10
2022-11-06T01:50:56.487Z,2.10
2022-11-06T01:53:43.852Z,2.10
2022-11-06T01:56:31.561Z,2.10
2022-11-06T01:59:19.896Z,2.10
2022-11-06T02:02:07.328Z,2.10
2022-11-06T02:04:56.222Z,2.00
2022-11-06T02:07:44.220Z,2.00
2022-11-06T02:10:32.061Z,2.00
2022-11-06T02:13:26.744Z,2.00
2022-11-06T02:16:17.428Z,2.00
2022-11-06T02:19:22.399Z,2.00
2022-11-06T02:22:18.450Z,1.90
2022-11-06T02:25:16.621Z,1.90
2022-11-06T02:28:09.485Z,1.90
2022-11-06T02:30:59.360Z,1.90
2022-11-06T02:33:48.815Z,1.80
2022-11-06T02:36:38.362Z,1.80
2022-11-06T02:39:28.376Z,1.80
2022-11-06T02:42:17.483Z,1.80
2022-11-06T02:45:08.901Z,1.70
2022-11-06T02:47:57.496Z,1.70
2022-11-06T02:50:47.059Z,1.60
2022-11-06T02:53:34.561Z,1.60
2022-11-06T02:56:23.778Z,1.50
2022-11-06T02:59:13.382Z,1.50
2022-11-06T03:02:03.105Z,1.50
2022-11-06T03:04:52.528Z,1.50
2022-11-06T03:07:42.563Z,1.40
2022-11-06T03:10:33.404Z,1.40
2022-11-06T03:13:22.859Z,1.40
2022-11-06T03:16:17.081Z,1.40
2022-11-06T03:19:08.470Z,1.30
2022-11-06T03:22:01.897Z,1.30
2022-11-06T03:24:52.844Z,1.30
2022-11-06T03:27:43.104Z,1.30
2022-11-06T03:30:31.154Z,1.30
2022-11-06T03:33:21.595Z,1.20
2022-11-06T03:36:13.383Z,1.20
2022-11-06T03:39:02.767Z,1.10
2022-11-06T03:41:52.514Z,1.10
2022-11-06T03:44:41.558Z,1.00
2022-11-06T03:47:32.560Z,1.00
2022-11-06T03:50:22.297Z,0.90
2022-11-06T03:53:13.403Z,0.90
2022-11-06T03:56:03.609Z,0.90
2022-11-06T03:58:51.801Z,0.80
2022-11-06T04:01:44.363Z,0.80
2022-11-06T04:04:34.597Z,0.80
2022-11-06T04:07:23.769Z,0.80
2022-11-06T04:10:31.055Z,0.80
2022-11-06T04:13:37.270Z,0.80
2022-11-06T04:16:25.322Z,0.80
2022-11-06T04:19:15.148Z,0.90
2022-11-06T04:22:09.916Z,0.90
2022-11-06T04:25:18.666Z,0.90
2022-11-06T04:28:15.588Z,1.00
2022-11-06T04:31:06.942Z,1.00
2022-11-06T04:33:58.473Z,1.00
2022-11-06T04:36:47.843Z,1.00
2022-11-06T04:39:38.293Z,1.00
2022-11-06T04:42:29.396Z,1.10
2022-11-06T04:45:21.991Z,1.10
2022-11-06T04:48:10.507Z,1.10
2022-11-06T04:51:00.918Z,1.10
2022-11-06T04:53:49.438Z,1.20
2022-11-06T04:56:41.477Z,1.20
2022-11-06T04:59:37.688Z,1.20
2022-11-06T05:02:26.475Z,1.20
2022-11-06T05:05:13.807Z,1.20
2022-11-06T05:08:01.133Z,1.20
2022-11-06T05:10:48.970Z,1.20
2022-11-06T05:13:37.458Z,1.30
2022-11-06T05:16:25.120Z,1.20
2022-11-06T05:19:14.166Z,1.20
2022-11-06T05:22:18.754Z,1.20
2022-11-06T05:25:06.226Z,1.20
2022-11-06T05:27:53.931Z,1.20
2022-11-06T05:30:41.561Z,1.20
2022-11-06T05:33:28.790Z,1.20
2022-11-06T05:36:17.385Z,1.20
2022-11-06T05:39:04.627Z,1.20
2022-11-06T05:41:52.123Z,1.20
2022-11-06T05:44:39.492Z,1.20
2022-11-06T05:47:26.975Z,1.20
2022-11-06T05:50:14.419Z,1.20
2022-11-06T05:53:03.188Z,1.20
2022-11-06T05:55:50.700Z,1.20
2022-11-06T05:58:38.401Z,1.20
2022-11-06T06:01:26.002Z,1.20
2022-11-06T06:04:13.754Z,1.20
2022-11-06T06:07:01.025Z,1.20
2022-11-06T06:09:50.128Z,1.20
2022-11-06T06:12:37.493Z,1.20
2022-11-06T06:15:25.147Z,1.30
2022-11-06T06:18:12.897Z,1.30
2022-11-06T06:21:01.043Z,1.40
2022-11-06T06:23:48.770Z,1.40
2022-11-06T06:26:37.444Z,1.40
2022-11-06T06:29:24.943Z,1.50
2022-11-06T06:32:12.175Z,1.50
2022-11-06T06:34:59.743Z,1.50
2022-11-06T06:37:51.751Z,1.60
2022-11-06T06:40:39.283Z,1.60
2022-11-06T06:43:28.262Z,1.60
2022-11-06T06:46:15.627Z,1.70
2022-11-06T06:49:03.107Z,1.70
2022-11-06T06:51:50.780Z,1.70
2022-11-06T06:54:37.991Z,1.80
2022-11-06T06:57:25.273Z,1.80
2022-11-06T07:00:14.579Z,1.80
2022-11-06T07:03:02.676Z,1.80
2022-11-06T07:05:50.284Z,1.80
2022-11-06T07:08:38.099Z,1.80
2022-11-06T07:11:25.648Z,1.80
2022-11-06T07:14:12.772Z,1.90
2022-11-06T07:17:01.394Z,1.90
2022-11-06T07:19:48.998Z,2.00
2022-11-06T07:22:37.770Z,2.00
2022-11-06T07:25:25.711Z,2.10
2022-11-06T07:28:12.941Z,2.20
2022-11-06T07:31:00.789Z,2.20
2022-11-06T07:33:49.704Z,2.30
2022-11-06T07:36:37.181Z,2.40
2022-11-06T07:39:24.727Z,2.50
2022-11-06T07:42:14.782Z,2.70
2022-11-06T07:45:17.031Z,2.80
2022-11-06T07:48:04.784Z,3.00
2022-11-06T07:50:53.698Z,3.20
2022-11-06T07:53:41.367Z,3.30
2022-11-06T07:56:28.792Z,3.50
2022-11-06T07:59:16.365Z,3.60
2022-11-06T08:02:03.869Z,3.70
2022-11-06T08:04:52.041Z,3.80
2022-11-06T08:07:41.332Z,4.00
2022-11-06T08:10:28.955Z,4.10
2022-11-06T08:13:18.505Z,4.20
2022-11-06T08:16:07.003Z,4.30
2022-11-06T08:18:54.640Z,4.50
2022-11-06T08:21:42.245Z,4.60
2022-11-06T08:24:31.373Z,4.70
2022-11-06T08:27:19.361Z,4.90
2022-11-06T08:30:08.403Z,5.10
2022-11-06T08:32:57.121Z,5.40
2022-11-06T08:35:44.797Z,5.70
2022-11-06T08:38:32.511Z,5.90
2022-11-06T08:41:21.853Z,6.00
2022-11-06T08:44:09.840Z,6.10
2022-11-06T08:46:57.735Z,6.10
2022-11-06T08:49:45.647Z,6.10
2022-11-06T08:52:34.372Z,6.00
2022-11-06T08:55:21.975Z,6.10
2022-11-06T08:58:10.867Z,6.10
2022-11-06T09:00:58.449Z,6.40
2022-11-06T09:03:46.040Z,6.60
2022-11-06T09:06:33.941Z,6.90
2022-11-06T09:09:22.112Z,7.00
2022-11-06T09:12:10.079Z,7.20
2022-11-06T09:14:58.989Z,7.40
2022-11-06T09:17:47.817Z,7.60
2022-11-06T09:20:35.903Z,7.80
2022-11-06T09:23:23.694Z,8.00
2022-11-06T09:26:11.324Z,8.30
2022-11-06T09:28:59.190Z,8.50
2022-11-06T09:31:48.378Z,8.70
2022-11-06T09:34:36.268Z,8.90
2022-11-06T09:37:23.775Z,9.10
2022-11-06T09:40:21.325Z,9.30
2022-11-06T09:43:50.326Z,9.40
2022-11-06T09:46:34.452Z,9.50
2022-11-06T09:49:27.748Z,9.60
2022-11-06T09:52:23.895Z,9.80
2022-11-06T09:55:17.280Z,10.00
2022-11-06T09:58:11.434Z,10.00
2022-11-06T10:01:03.714Z,10.20
2022-11-06T10:03:56.128Z,10.40
2022-11-06T10:06:45.031Z,10.50
2022-11-06T10:09:32.868Z,10.70
2022-11-06T10:12:28.035Z,10.80
2022-11-06T10:15:23.797Z,10.90
2022-11-06T10:18:22.278Z,10.90
2022-11-06T10:21:13.053Z,11.10
2022-11-06T10:24:12.891Z,11.30
2022-11-06T10:27:00.635Z,11.50
2022-11-06T10:30:07.683Z,11.70
2022-11-06T10:33:16.750Z,11.80
2022-11-06T10:36:11.077Z,11.90
2022-11-06T10:39:04.704Z,12.10
2022-11-06T10:41:59.618Z,12.20
2022-11-06T10:44:51.007Z,12.40
2022-11-06T10:47:42.232Z,12.40
2022-11-06T10:50:38.441Z,12.50
2022-11-06T10:53:33.586Z,12.70
2022-11-06T10:56:40.009Z,12.80
2022-11-06T10:59:28.498Z,12.90
2022-11-06T11:02:26.045Z,13.10
2022-11-06T11:05:15.653Z,13.20
2022-11-06T11:08:03.627Z,13.30
2022-11-06T11:11:04.479Z,13.40
2022-11-06T11:14:16.018Z,13.40
2022-11-06T11:17:09.343Z,13.50
2022-11-06T11:19:57.135Z,13.40
2022-11-06T11:22:44.728Z,13.50
2022-11-06T11:25:32.313Z,13.50
2022-11-06T11:28:32.119Z,13.50
2022-11-06T11:31:21.879Z,13.60
2022-11-06T11:34:18.456Z,13.80
2022-11-06T11:37:08.356Z,13.90
2022-11-06T11:39:57.653Z,13.90
2022-11-06T11:42:45.309Z,13.90
2022-11-06T11:45:32.675Z,13.90
2022-11-06T11:48:21.530Z,13.90
2022-11-06T11:51:20.489Z,14.00
2022-11-06T11:54:19.822Z,14.10
2022-11-06T11:57:09.848Z,14.10
2022-11-06T12:00:02.948Z,14.00
2022-11-06T12:02:54.642Z,13.90
2022-11-06T12:05:43.968Z,14.10
2022-11-06T12:08:31.976Z,14.20
2022-11-06T12:11:23.699Z,14.20
2022-11-06T12:14:32.557Z,14.20
2022-11-06T12:17:23.541Z,14.00
2022-11-06T12:20:15.257Z,14.00
2022-11-06T12:23:07.641Z,13.90
2022-11-06T12:26:02.811Z,13.90
2022-11-06T12:28:53.766Z,14.00
2022-11-06T12:31:44.243Z,14.00
2022-11-06T12:34:36.256Z,13.90
2022-11-06T12:37:36.534Z,13.90
2022-11-06T12:40:30.349Z,13.90
2022-11-06T12:43:24.609Z,14.10
2022-11-06T12:46:22.018Z,14.10
2022-11-06T12:49:29.474Z,14.10
2022-11-06T12:52:33.930Z,14.20
2022-11-06T12:55:29.058Z,14.20
2022-11-06T12:58:39.733Z,14.20
2022-11-06T13:01:41.752Z,14.10
2022-11-06T13:04:41.152Z,14.10
2022-11-06T13:07:48.282Z,14.20
2022-11-06T13:10:47.692Z,14.40
2022-11-06T13:13:50.834Z,14.50
2022-11-06T13:16:45.577Z,14.40
2022-11-06T13:19:38.990Z,14.40
2022-11-06T13:22:31.457Z,14.20
2022-11-06T13:25:24.323Z,14.20
2022-11-06T13:28:27.316Z,14.20
2022-11-06T13:31:18.856Z,14.30
2022-11-06T13:34:08.075Z,14.20
2022-11-06T13:36:56.985Z,14.20
2022-11-06T13:39:49.450Z,14.20
2022-11-06T13:42:42.755Z,14.30
2022-11-06T13:45:36.238Z,14.20
2022-11-06T13:48:38.154Z,14.20
2022-11-06T13:51:38.255Z,14.20
2022-11-06T13:54:40.953Z,14.00
2022-11-06T13:57:49.276Z,14.10
2022-11-06T14:00:48.925Z,13.90
2022-11-06T14:04:00.483Z,14.10
2022-11-06T14:06:52.732Z,14.30
2022-11-06T14:09:45.105Z,14.50
2022-11-06T14:12:32.902Z,14.50
2022-11-06T14:15:31.798Z,14.50
2022-11-06T14:18:24.884Z,14.40
2022-11-06T14:21:46.711Z,14.00
2022-11-06T14:24:35.706Z,13.60
2022-11-06T14:28:05.963Z,13.10
2022-11-06T14:34:05.517Z,12.30
2022-11-06T14:36:53.362Z,12.00
2022-11-06T14:40:06.367Z,11.80
2022-11-06T14:42:54.190Z,11.60
2022-11-06T14:45:52.092Z,11.50
2022-11-06T14:48:44.092Z,11.20
2022-11-06T14:51:33.219Z,11.00
2022-11-06T14:54:24.496Z,10.80
2022-11-06T14:57:18.203Z,10.50
2022-11-06T15:00:06.669Z,10.30
2022-11-06T15:02:56.666Z,10.10
2022-11-06T15:05:48.252Z,9.90
2022-11-06T15:09:00.945Z,9.70
2022-11-06T15:11:53.916Z,9.50
2022-11-06T15:15:07.655Z,9.40
2022-11-06T15:17:55.459Z,9.20
2022-11-06T15:20:46.994Z,9.00
2022-11-06T15:23:44.160Z,8.80
2022-11-06T15:26:41.463Z,8.70
2022-11-06T15:29:33.171Z,8.50
2022-11-06T15:32:24.178Z,8.30
2022-11-06T15:35:16.485Z,8.20
2022-11-06T15:38:11.699Z,8.10
2022-11-06T15:40:59.739Z,8.00
2022-11-06T15:43:50.746Z,7.90
2022-11-06T15:46:38.329Z,7.90
2022-11-06T15:49:27.224Z,7.80
2022-11-06T15:52:19.194Z,7.80
2022-11-06T15:55:08.002Z,7.70
2022-11-06T15:57:55.795Z,7.70
2022-11-06T16:00:45.867Z,7.60
2022-11-06T16:03:34.285Z,7.60
2022-11-06T16:06:22.893Z,7.60
2022-11-06T16:09:17.791Z,7.60
2022-11-06T16:12:06.016Z,7.50
2022-11-06T16:14:53.759Z,7.40
2022-11-06T16:17:46.193Z,7.30
2022-11-06T16:20:33.878Z,7.20
2022-11-06T16:23:30.700Z,7.10
2022-11-06T16:26:24.259Z,7.10
2022-11-06T16:29:13.291Z,7.00
2022-11-06T16:32:01.731Z,6.90
2022-11-06T16:34:51.927Z,6.90
2022-11-06T16:37:40.004Z,6.80
2022-11-06T16:40:46.119Z,6.80
2022-11-06T16:43:33.477Z,6.80
2022-11-06T16:46:20.973Z,6.70
2022-11-06T16:49:31.373Z,6.70
2022-11-06T16:52:30.536Z,6.60
2022-11-06T16:55:25.296Z,6.60
2022-11-06T16:58:16.177Z,6.50
2022-11-06T17:01:05.260Z,6.50
2022-11-06T17:03:55.264Z,6.50
2022-11-06T17:06:45.419Z,6.40
2022-11-06T17:09:35.003Z,6.40
2022-11-06T17:12:22.187Z,6.30
2022-11-06T17:15:10.185Z,6.20
2022-11-06T17:17:57.765Z,6.10
2022-11-06T17:20:49.646Z,6.00
2022-11-06T17:23:37.167Z,5.90
2022-11-06T17:26:26.474Z,5.80
2022-11-06T17:29:16.975Z,5.70
2022-11-06T17:32:08.723Z,5.60
2022-11-06T17:34:56.385Z,5.60
2022-11-06T17:37:43.874Z,5.50
2022-11-06T17:40:31.370Z,5.40
2022-11-06T17:43:20.532Z,5.30
2022-11-06T17:46:08.403Z,5.30
2022-11-06T17:48:56.032Z,5.20
2022-11-06T17:51:58.351Z,5.20
2022-11-06T17:54:46.027Z,5.10
2022-11-06T17:57:33.594Z,5.00
2022-11-06T18:00:23.152Z,5.00
2022-11-06T18:03:17.861Z,4.90
2022-11-06T18:06:05.464Z,4.80
2022-11-06T18:08:56.356Z,4.70
2022-11-06T18:11:44.284Z,4.60
2022-11-06T18:14:31.528Z,4.60
2022-11-06T18:17:20.124Z,4.50
2022-11-06T18:20:08.468Z,4.40
2022-11-06T18:22:57.014Z,4.30
2022-11-06T18:28:31.776Z,4.10
2022-11-06T18:31:19.708Z,4.00
2022-11-06T18:34:08.363Z,4.00
2022-11-06T18:36:55.646Z,3.90
2022-11-06T18:39:43.497Z,3.90
2022-11-06T18:42:31.503Z,3.80
2022-11-06T18:45:19.302Z,3.80
2022-11-06T18:48:07.507Z,3.70
2022-11-06T18:50:56.751Z,3.70
2022-11-06T18:53:44.312Z,3.70
2022-11-06T18:56:31.822Z,3.70
2022-11-06T18:59:20.632Z,3.70
2022-11-06T19:02:09.834Z,3.70
2022-11-06T19:04:57.240Z,3.70
2022-11-06T19:07:51.189Z,3.70
2022-11-06T19:10:40.413Z,3.70
2022-11-06T19:13:27.748Z,3.70
2022-11-06T19:16:15.305Z,3.80
2022-11-06T19:19:05.531Z,3.80
2022-11-06T19:21:53.619Z,3.80
2022-11-06T19:24:42.937Z,3.80
2022-11-06T19:27:30.654Z,3.80
2022-11-06T19:30:18.034Z,3.80
2022-11-06T19:33:05.692Z,3.80
2022-11-06T19:35:54.652Z,3.90
2022-11-06T19:38:41.959Z,3.90
2022-11-06T19:41:31.245Z,3.80
2022-11-06T19:44:18.915Z,3.80
2022-11-06T19:47:06.313Z,3.80
2022-11-06T19:49:53.631Z,3.80
2022-11-06T19:52:45.487Z,3.80
2022-11-06T19:55:39.246Z,3.80
2022-11-06T19:58:27.911Z,3.80
2022-11-06T20:01:15.591Z,3.70
2022-11-06T20:04:03.221Z,3.70
2022-11-06T20:06:50.735Z,3.70
2022-11-06T20:09:38.340Z,3.70
2022-11-06T20:12:26.012Z,3.70
2022-11-06T20:15:16.765Z,3.80
2022-11-06T20:18:07.369Z,3.80
2022-11-06T20:20:54.550Z,3.80
2022-11-06T20:23:41.841Z,3.70
2022-11-06T20:26:29.373Z,3.70
2022-11-06T20:29:16.661Z,3.60
2022-11-06T20:32:06.343Z,3.60
2022-11-06T20:34:53.695Z,3.60
2022-11-06T20:37:41.383Z,3.60
2022-11-06T20:40:32.016Z,3.60
2022-11-06T20:43:22.549Z,3.70
2022-11-06T20:46:10.472Z,3.80
2022-11-06T20:48:59.293Z,3.80
2022-11-06T20:52:12.080Z,3.90
2022-11-06T20:54:54.436Z,4.00
2022-11-06T20:57:42.407Z,4.10
2022-11-06T21:00:29.655Z,4.10
2022-11-06T21:03:17.096Z,4.20
2022-11-06T21:06:08.819Z,4.20
2022-11-06T21:08:56.428Z,4.20
2022-11-06T21:11:44.062Z,4.30
2022-11-06T21:14:31.581Z,4.30
2022-11-06T21:17:19.183Z,4.20
2022-11-06T21:20:07.370Z,4.20
2022-11-06T21:22:55.983Z,4.10
2022-11-06T21:25:45.430Z,4.00
2022-11-06T21:28:33.487Z,3.90
2022-11-06T21:31:21.645Z,3.90
2022-11-06T21:34:09.405Z,3.80
2022-11-06T21:37:02.148Z,3.70
2022-11-06T21:39:51.694Z,3.70
2022-11-06T21:42:39.380Z,3.70
2022-11-06T21:45:27.076Z,3.70
2022-11-06T21:48:25.968Z,3.60
2022-11-06T21:51:22.765Z,3.60
2022-11-06T21:54:29.124Z,3.50
2022-11-06T21:57:17.999Z,3.50
2022-11-06T22:00:05.699Z,3.40
2022-11-06T22:02:59.147Z,3.30
2022-11-06T22:05:46.857Z,3.30
2022-11-06T22:08:36.112Z,3.10
2022-11-06T22:11:24.600Z,3.10
2022-11-06T22:14:15.159Z,3.10
2022-11-06T22:17:02.595Z,3.10
2022-11-06T22:19:50.111Z,3.10
2022-11-06T22:22:37.269Z,3.10
2022-11-06T22:25:25.206Z,3.10
2022-11-06T22:28:12.355Z,3.20
2022-11-06T22:31:01.566Z,3.20
2022-11-06T22:33:53.473Z,3.10
2022-11-06T22:36:42.072Z,3.10
2022-11-06T22:39:29.746Z,3.10
2022-11-06T22:42:17.451Z,3.00
2022-11-06T22:45:04.980Z,3.10
2022-11-06T22:47:56.201Z,3.20
2022-11-06T22:50:43.669Z,3.20
2022-11-06T22:53:31.187Z,3.20
2022-11-06T22:56:18.885Z,3.30
2022-11-06T22:59:08.653Z,3.20
2022-11-06T23:01:56.720Z,3.30
2022-11-06T23:04:45.757Z,3.30
2022-11-06T23:07:33.355Z,3.40
2022-11-06T23:10:28.842Z,3.40
2022-11-06T23:13:16.171Z,3.40
2022-11-06T23:16:05.113Z,3.30
2022-11-06T23:18:53.484Z,3.30
2022-11-06T23:21:43.146Z,3.20
2022-11-06T23:24:30.477Z,3.20
2022-11-06T23:27:18.400Z,3.20
2022-11-06T23:30:06.656Z,3.10
2022-11-06T23:32:54.032Z,3.20
2022-11-06T23:35:41.487Z,3.30
2022-11-06T23:38:31.016Z,3.40
2022-11-06T23:41:35.670Z,3.50
2022-11-06T23:44:40.791Z,3.60
2022-11-06T23:47:28.025Z,3.70
2022-11-06T23:50:15.573Z,3.80
2022-11-06T23:53:02.890Z,3.80
2022-11-06T23:55:52.231Z,3.80
2022-11-06T23:58:39.639Z,3.80
